sensor_id;sensor_type;location;lat;lon;timestamp;P1;durP1;ratioP1;P2;durP2;ratioP2
79149;SDS011;68563;45.644;13.782;2023-04-25T00:01:46;0.98;;;0.70;;
79149;SDS011;68563;45.644;13.782;2023-04-25T00:04:12;0.85;;;0.70;;
79149;SDS011;68563;45.644;13.782;2023-04-25T00:06:38;0.88;;;0.70;;
79149;SDS011;68563;45.644;13.782;2023-04-25T00:09:04;0.80;;;0.70;;
79149;SDS011;68563;45.644;13.782;2023-04-25T00:11:32;2.00;;;0.70;;
79149;SDS011;68563;45.644;13.782;2023-04-25T00:13:58;1.10;;;0.90;;
79149;SDS011;68563;45.644;13.782;2023-04-25T00:16:24;1.42;;;0.85;;
79149;SDS011;68563;45.644;13.782;2023-04-25T00:18:50;1.20;;;0.70;;
79149;SDS011;68563;45.644;13.782;2023-04-25T00:21:18;1.33;;;0.80;;
79149;SDS011;68563;45.644;13.782;2023-04-25T00:23:44;1.02;;;0.80;;
79149;SDS011;68563;45.644;13.782;2023-04-25T00:26:10;3.70;;;0.80;;
79149;SDS011;68563;45.644;13.782;2023-04-25T00:28:36;0.98;;;0.60;;
79149;SDS011;68563;45.644;13.782;2023-04-25T00:31:02;3.42;;;0.80;;
79149;SDS011;68563;45.644;13.782;2023-04-25T00:33:28;1.30;;;0.90;;
79149;SDS011;68563;45.644;13.782;2023-04-25T00:35:54;0.70;;;0.70;;
79149;SDS011;68563;45.644;13.782;2023-04-25T00:38:19;0.80;;;0.70;;
79149;SDS011;68563;45.644;13.782;2023-04-25T00:40:45;1.02;;;0.90;;
79149;SDS011;68563;45.644;13.782;2023-04-25T00:43:10;1.15;;;0.65;;
79149;SDS011;68563;45.644;13.782;2023-04-25T00:45:36;0.73;;;0.70;;
79149;SDS011;68563;45.644;13.782;2023-04-25T00:48:04;1.83;;;0.60;;
79149;SDS011;68563;45.644;13.782;2023-04-25T00:50:30;1.02;;;0.70;;
79149;SDS011;68563;45.644;13.782;2023-04-25T00:52:55;0.95;;;0.80;;
79149;SDS011;68563;45.644;13.782;2023-04-25T00:55:21;0.90;;;0.80;;
79149;SDS011;68563;45.644;13.782;2023-04-25T00:57:47;2.72;;;1.00;;
79149;SDS011;68563;45.644;13.782;2023-04-25T01:00:12;1.50;;;0.75;;
79149;SDS011;68563;45.644;13.782;2023-04-25T01:02:39;0.80;;;0.70;;
79149;SDS011;68563;45.644;13.782;2023-04-25T01:05:06;1.00;;;0.75;;
79149;SDS011;68563;45.644;13.782;2023-04-25T01:07:32;0.80;;;0.70;;
79149;SDS011;68563;45.644;13.782;2023-04-25T01:09:58;0.90;;;0.80;;
79149;SDS011;68563;45.644;13.782;2023-04-25T01:12:24;1.10;;;0.60;;
79149;SDS011;68563;45.644;13.782;2023-04-25T01:14:49;0.75;;;0.75;;
79149;SDS011;68563;45.644;13.782;2023-04-25T01:17:15;0.70;;;0.63;;
79149;SDS011;68563;45.644;13.782;2023-04-25T01:19:41;1.77;;;0.60;;
79149;SDS011;68563;45.644;13.782;2023-04-25T01:22:06;1.13;;;0.50;;
79149;SDS011;68563;45.644;13.782;2023-04-25T01:24:32;1.52;;;0.70;;
79149;SDS011;68563;45.644;13.782;2023-04-25T01:26:58;0.52;;;0.52;;
79149;SDS011;68563;45.644;13.782;2023-04-25T01:29:25;0.50;;;0.50;;
79149;SDS011;68563;45.644;13.782;2023-04-25T01:31:52;0.90;;;0.77;;
79149;SDS011;68563;45.644;13.782;2023-04-25T01:34:18;0.75;;;0.60;;
79149;SDS011;68563;45.644;13.782;2023-04-25T01:36:44;0.65;;;0.60;;
79149;SDS011;68563;45.644;13.782;2023-04-25T01:39:09;0.85;;;0.50;;
79149;SDS011;68563;45.644;13.782;2023-04-25T01:41:35;0.60;;;0.60;;
79149;SDS011;68563;45.644;13.782;2023-04-25T01:44:01;0.65;;;0.60;;
79149;SDS011;68563;45.644;13.782;2023-04-25T01:46:27;0.95;;;0.73;;
79149;SDS011;68563;45.644;13.782;2023-04-25T01:48:52;0.50;;;0.50;;
79149;SDS011;68563;45.644;13.782;2023-04-25T01:51:18;0.70;;;0.63;;
79149;SDS011;68563;45.644;13.782;2023-04-25T01:53:43;0.75;;;0.50;;
79149;SDS011;68563;45.644;13.782;2023-04-25T01:56:09;0.60;;;0.52;;
79149;SDS011;68563;45.644;13.782;2023-04-25T01:58:35;1.10;;;0.70;;
79149;SDS011;68563;45.644;13.782;2023-04-25T02:01:00;0.65;;;0.60;;
79149;SDS011;68563;45.644;13.782;2023-04-25T02:03:26;1.27;;;0.50;;
79149;SDS011;68563;45.644;13.782;2023-04-25T02:05:51;0.40;;;0.40;;
79149;SDS011;68563;45.644;13.782;2023-04-25T02:08:17;1.13;;;0.50;;
79149;SDS011;68563;45.644;13.782;2023-04-25T02:10:43;0.77;;;0.70;;
79149;SDS011;68563;45.644;13.782;2023-04-25T02:13:08;1.17;;;0.50;;
79149;SDS011;68563;45.644;13.782;2023-04-25T02:15:34;1.15;;;0.60;;
79149;SDS011;68563;45.644;13.782;2023-04-25T02:17:59;0.50;;;0.50;;
79149;SDS011;68563;45.644;13.782;2023-04-25T02:20:25;0.93;;;0.50;;
79149;SDS011;68563;45.644;13.782;2023-04-25T02:22:51;0.70;;;0.70;;
79149;SDS011;68563;45.644;13.782;2023-04-25T02:25:17;2.05;;;0.50;;
79149;SDS011;68563;45.644;13.782;2023-04-25T02:27:45;0.65;;;0.60;;
79149;SDS011;68563;45.644;13.782;2023-04-25T02:30:11;0.63;;;0.60;;
79149;SDS011;68563;45.644;13.782;2023-04-25T02:32:36;0.70;;;0.60;;
79149;SDS011;68563;45.644;13.782;2023-04-25T02:35:02;1.33;;;0.70;;
79149;SDS011;68563;45.644;13.782;2023-04-25T02:37:32;0.65;;;0.40;;
79149;SDS011;68563;45.644;13.782;2023-04-25T02:39:59;1.17;;;0.50;;
79149;SDS011;68563;45.644;13.782;2023-04-25T02:42:24;1.58;;;0.60;;
79149;SDS011;68563;45.644;13.782;2023-04-25T02:44:50;0.50;;;0.50;;
79149;SDS011;68563;45.644;13.782;2023-04-25T02:47:15;0.90;;;0.60;;
79149;SDS011;68563;45.644;13.782;2023-04-25T02:49:40;0.70;;;0.70;;
79149;SDS011;68563;45.644;13.782;2023-04-25T02:52:06;0.50;;;0.50;;
79149;SDS011;68563;45.644;13.782;2023-04-25T02:54:31;1.38;;;0.50;;
79149;SDS011;68563;45.644;13.782;2023-04-25T02:56:57;0.60;;;0.57;;
79149;SDS011;68563;45.644;13.782;2023-04-25T02:59:23;0.70;;;0.60;;
79149;SDS011;68563;45.644;13.782;2023-04-25T03:01:48;1.90;;;0.50;;
79149;SDS011;68563;45.644;13.782;2023-04-25T03:04:13;0.70;;;0.60;;
79149;SDS011;68563;45.644;13.782;2023-04-25T03:06:39;1.15;;;0.65;;
79149;SDS011;68563;45.644;13.782;2023-04-25T03:09:04;1.00;;;0.85;;
79149;SDS011;68563;45.644;13.782;2023-04-25T03:11:30;0.70;;;0.60;;
79149;SDS011;68563;45.644;13.782;2023-04-25T03:13:55;1.10;;;0.60;;
79149;SDS011;68563;45.644;13.782;2023-04-25T03:16:21;0.82;;;0.63;;
79149;SDS011;68563;45.644;13.782;2023-04-25T03:18:47;0.85;;;0.60;;
79149;SDS011;68563;45.644;13.782;2023-04-25T03:21:12;1.48;;;0.55;;
79149;SDS011;68563;45.644;13.782;2023-04-25T03:23:37;0.75;;;0.60;;
79149;SDS011;68563;45.644;13.782;2023-04-25T03:26:03;1.10;;;0.45;;
79149;SDS011;68563;45.644;13.782;2023-04-25T03:28:28;1.27;;;0.57;;
79149;SDS011;68563;45.644;13.782;2023-04-25T03:30:54;1.08;;;0.70;;
79149;SDS011;68563;45.644;13.782;2023-04-25T03:33:19;1.95;;;0.70;;
79149;SDS011;68563;45.644;13.782;2023-04-25T03:35:45;1.20;;;0.80;;
79149;SDS011;68563;45.644;13.782;2023-04-25T03:38:10;1.35;;;0.70;;
79149;SDS011;68563;45.644;13.782;2023-04-25T03:40:36;0.90;;;0.60;;
79149;SDS011;68563;45.644;13.782;2023-04-25T03:43:01;2.50;;;0.50;;
79149;SDS011;68563;45.644;13.782;2023-04-25T03:45:26;3.08;;;0.63;;
79149;SDS011;68563;45.644;13.782;2023-04-25T03:47:52;1.10;;;0.77;;
79149;SDS011;68563;45.644;13.782;2023-04-25T03:50:17;1.90;;;0.65;;
79149;SDS011;68563;45.644;13.782;2023-04-25T03:52:42;2.65;;;0.80;;
79149;SDS011;68563;45.644;13.782;2023-04-25T03:55:08;1.15;;;0.68;;
79149;SDS011;68563;45.644;13.782;2023-04-25T03:57:34;1.80;;;0.70;;
79149;SDS011;68563;45.644;13.782;2023-04-25T04:00:00;0.98;;;0.77;;
79149;SDS011;68563;45.644;13.782;2023-04-25T04:02:25;1.63;;;0.95;;
79149;SDS011;68563;45.644;13.782;2023-04-25T04:04:50;2.45;;;0.85;;
79149;SDS011;68563;45.644;13.782;2023-04-25T04:07:16;1.20;;;0.60;;
79149;SDS011;68563;45.644;13.782;2023-04-25T04:09:41;0.90;;;0.70;;
79149;SDS011;68563;45.644;13.782;2023-04-25T04:12:06;0.63;;;0.50;;
79149;SDS011;68563;45.644;13.782;2023-04-25T04:14:32;1.33;;;0.95;;
79149;SDS011;68563;45.644;13.782;2023-04-25T04:16:58;0.95;;;0.57;;
79149;SDS011;68563;45.644;13.782;2023-04-25T04:19:23;1.08;;;0.63;;
79149;SDS011;68563;45.644;13.782;2023-04-25T04:21:48;0.75;;;0.60;;
79149;SDS011;68563;45.644;13.782;2023-04-25T04:24:14;1.58;;;0.70;;
79149;SDS011;68563;45.644;13.782;2023-04-25T04:26:41;0.75;;;0.52;;
79149;SDS011;68563;45.644;13.782;2023-04-25T04:29:10;1.48;;;0.70;;
79149;SDS011;68563;45.644;13.782;2023-04-25T04:31:35;0.50;;;0.50;;
79149;SDS011;68563;45.644;13.782;2023-04-25T04:34:01;0.70;;;0.50;;
79149;SDS011;68563;45.644;13.782;2023-04-25T04:36:27;0.95;;;0.60;;
79149;SDS011;68563;45.644;13.782;2023-04-25T04:38:52;1.60;;;0.60;;
79149;SDS011;68563;45.644;13.782;2023-04-25T04:41:18;1.05;;;0.63;;
79149;SDS011;68563;45.644;13.782;2023-04-25T04:43:44;2.83;;;0.90;;
79149;SDS011;68563;45.644;13.782;2023-04-25T04:46:10;2.28;;;0.90;;
79149;SDS011;68563;45.644;13.782;2023-04-25T04:48:35;0.88;;;0.70;;
79149;SDS011;68563;45.644;13.782;2023-04-25T04:51:01;1.83;;;0.60;;
79149;SDS011;68563;45.644;13.782;2023-04-25T04:53:26;2.08;;;1.08;;
79149;SDS011;68563;45.644;13.782;2023-04-25T04:55:52;2.28;;;1.02;;
79149;SDS011;68563;45.644;13.782;2023-04-25T04:58:18;1.83;;;0.80;;
79149;SDS011;68563;45.644;13.782;2023-04-25T05:00:44;0.93;;;0.60;;
79149;SDS011;68563;45.644;13.782;2023-04-25T05:03:09;1.20;;;0.52;;
79149;SDS011;68563;45.644;13.782;2023-04-25T05:05:36;0.82;;;0.70;;
79149;SDS011;68563;45.644;13.782;2023-04-25T05:08:04;1.10;;;0.60;;
79149;SDS011;68563;45.644;13.782;2023-04-25T05:10:30;1.00;;;0.50;;
79149;SDS011;68563;45.644;13.782;2023-04-25T05:12:56;1.35;;;0.75;;
79149;SDS011;68563;45.644;13.782;2023-04-25T05:15:21;1.42;;;0.60;;
79149;SDS011;68563;45.644;13.782;2023-04-25T05:17:46;1.02;;;0.80;;
79149;SDS011;68563;45.644;13.782;2023-04-25T05:20:12;0.90;;;0.60;;
79149;SDS011;68563;45.644;13.782;2023-04-25T05:22:39;1.67;;;0.50;;
79149;SDS011;68563;45.644;13.782;2023-04-25T05:25:06;0.47;;;0.40;;
79149;SDS011;68563;45.644;13.782;2023-04-25T05:27:32;0.70;;;0.50;;
79149;SDS011;68563;45.644;13.782;2023-04-25T05:29:58;1.75;;;0.60;;
79149;SDS011;68563;45.644;13.782;2023-04-25T05:32:23;1.85;;;0.93;;
79149;SDS011;68563;45.644;13.782;2023-04-25T05:34:49;1.48;;;0.90;;
79149;SDS011;68563;45.644;13.782;2023-04-25T05:37:16;1.10;;;0.60;;
79149;SDS011;68563;45.644;13.782;2023-04-25T05:39:41;2.67;;;0.70;;
79149;SDS011;68563;45.644;13.782;2023-04-25T05:42:07;0.98;;;0.70;;
79149;SDS011;68563;45.644;13.782;2023-04-25T05:44:32;1.00;;;0.38;;
79149;SDS011;68563;45.644;13.782;2023-04-25T05:46:57;0.98;;;0.60;;
79149;SDS011;68563;45.644;13.782;2023-04-25T05:49:23;0.57;;;0.57;;
79149;SDS011;68563;45.644;13.782;2023-04-25T05:51:48;0.80;;;0.70;;
79149;SDS011;68563;45.644;13.782;2023-04-25T05:54:14;0.88;;;0.57;;
79149;SDS011;68563;45.644;13.782;2023-04-25T05:56:39;2.50;;;0.60;;
79149;SDS011;68563;45.644;13.782;2023-04-25T05:59:04;0.68;;;0.65;;
79149;SDS011;68563;45.644;13.782;2023-04-25T06:01:30;0.60;;;0.47;;
79149;SDS011;68563;45.644;13.782;2023-04-25T06:03:56;0.60;;;0.60;;
79149;SDS011;68563;45.644;13.782;2023-04-25T06:06:21;0.55;;;0.52;;
79149;SDS011;68563;45.644;13.782;2023-04-25T06:08:47;0.50;;;0.50;;
79149;SDS011;68563;45.644;13.782;2023-04-25T06:11:12;1.25;;;0.65;;
79149;SDS011;68563;45.644;13.782;2023-04-25T06:13:37;1.27;;;0.85;;
79149;SDS011;68563;45.644;13.782;2023-04-25T06:16:03;0.98;;;0.60;;
79149;SDS011;68563;45.644;13.782;2023-04-25T06:18:29;0.63;;;0.50;;
79149;SDS011;68563;45.644;13.782;2023-04-25T06:20:55;1.50;;;0.50;;
79149;SDS011;68563;45.644;13.782;2023-04-25T06:23:20;2.88;;;0.70;;
79149;SDS011;68563;45.644;13.782;2023-04-25T06:25:46;0.50;;;0.50;;
79149;SDS011;68563;45.644;13.782;2023-04-25T06:28:11;1.98;;;0.65;;
79149;SDS011;68563;45.644;13.782;2023-04-25T06:30:37;1.48;;;0.70;;
79149;SDS011;68563;45.644;13.782;2023-04-25T06:33:02;0.98;;;0.57;;
79149;SDS011;68563;45.644;13.782;2023-04-25T06:35:27;3.55;;;0.63;;
79149;SDS011;68563;45.644;13.782;2023-04-25T06:37:53;1.95;;;0.60;;
79149;SDS011;68563;45.644;13.782;2023-04-25T06:40:18;1.60;;;0.70;;
79149;SDS011;68563;45.644;13.782;2023-04-25T06:42:44;1.35;;;0.60;;
79149;SDS011;68563;45.644;13.782;2023-04-25T06:45:09;1.90;;;0.68;;
79149;SDS011;68563;45.644;13.782;2023-04-25T06:47:35;0.52;;;0.50;;
79149;SDS011;68563;45.644;13.782;2023-04-25T06:50:00;3.30;;;0.60;;
79149;SDS011;68563;45.644;13.782;2023-04-25T06:52:25;0.50;;;0.50;;
79149;SDS011;68563;45.644;13.782;2023-04-25T06:54:51;1.02;;;0.70;;
79149;SDS011;68563;45.644;13.782;2023-04-25T06:57:16;2.85;;;1.10;;
79149;SDS011;68563;45.644;13.782;2023-04-25T06:59:41;2.92;;;0.80;;
79149;SDS011;68563;45.644;13.782;2023-04-25T07:02:07;0.70;;;0.60;;
79149;SDS011;68563;45.644;13.782;2023-04-25T07:04:32;2.83;;;1.23;;
79149;SDS011;68563;45.644;13.782;2023-04-25T07:06:58;1.77;;;0.90;;
79149;SDS011;68563;45.644;13.782;2023-04-25T07:09:25;1.95;;;1.10;;
79149;SDS011;68563;45.644;13.782;2023-04-25T07:11:51;2.92;;;1.30;;
79149;SDS011;68563;45.644;13.782;2023-04-25T07:14:16;2.33;;;1.02;;
79149;SDS011;68563;45.644;13.782;2023-04-25T07:16:41;1.20;;;0.90;;
79149;SDS011;68563;45.644;13.782;2023-04-25T07:19:07;2.13;;;1.17;;
79149;SDS011;68563;45.644;13.782;2023-04-25T07:21:32;1.27;;;0.85;;
79149;SDS011;68563;45.644;13.782;2023-04-25T07:23:58;3.80;;;1.27;;
79149;SDS011;68563;45.644;13.782;2023-04-25T07:26:23;2.72;;;1.15;;
79149;SDS011;68563;45.644;13.782;2023-04-25T07:28:49;1.40;;;1.10;;
79149;SDS011;68563;45.644;13.782;2023-04-25T07:31:16;3.42;;;0.95;;
79149;SDS011;68563;45.644;13.782;2023-04-25T07:33:43;1.50;;;0.90;;
79149;SDS011;68563;45.644;13.782;2023-04-25T07:36:12;1.83;;;1.02;;
79149;SDS011;68563;45.644;13.782;2023-04-25T07:38:38;4.70;;;1.00;;
79149;SDS011;68563;45.644;13.782;2023-04-25T07:41:04;2.10;;;1.08;;
79149;SDS011;68563;45.644;13.782;2023-04-25T07:43:29;1.20;;;1.00;;
79149;SDS011;68563;45.644;13.782;2023-04-25T07:45:55;4.25;;;1.15;;
79149;SDS011;68563;45.644;13.782;2023-04-25T07:48:21;3.22;;;1.10;;
79149;SDS011;68563;45.644;13.782;2023-04-25T07:50:46;3.95;;;1.70;;
79149;SDS011;68563;45.644;13.782;2023-04-25T07:53:12;2.00;;;1.33;;
79149;SDS011;68563;45.644;13.782;2023-04-25T07:55:38;2.58;;;1.30;;
79149;SDS011;68563;45.644;13.782;2023-04-25T07:58:05;2.60;;;1.48;;
79149;SDS011;68563;45.644;13.782;2023-04-25T08:00:31;2.03;;;1.40;;
79149;SDS011;68563;45.644;13.782;2023-04-25T08:02:57;1.83;;;1.40;;
79149;SDS011;68563;45.644;13.782;2023-04-25T08:05:22;5.68;;;1.63;;
79149;SDS011;68563;45.644;13.782;2023-04-25T08:07:47;2.92;;;0.98;;
79149;SDS011;68563;45.644;13.782;2023-04-25T08:10:13;7.45;;;1.20;;
79149;SDS011;68563;45.644;13.782;2023-04-25T08:12:38;4.78;;;1.30;;
79149;SDS011;68563;45.644;13.782;2023-04-25T08:15:04;3.38;;;1.10;;
79149;SDS011;68563;45.644;13.782;2023-04-25T08:17:31;7.10;;;1.30;;
79149;SDS011;68563;45.644;13.782;2023-04-25T08:19:56;3.95;;;1.10;;
79149;SDS011;68563;45.644;13.782;2023-04-25T08:22:22;4.45;;;1.20;;
79149;SDS011;68563;45.644;13.782;2023-04-25T08:24:47;2.20;;;1.27;;
79149;SDS011;68563;45.644;13.782;2023-04-25T08:27:13;7.57;;;1.58;;
79149;SDS011;68563;45.644;13.782;2023-04-25T08:29:38;3.28;;;1.30;;
79149;SDS011;68563;45.644;13.782;2023-04-25T08:32:03;3.10;;;1.10;;
79149;SDS011;68563;45.644;13.782;2023-04-25T08:34:29;2.70;;;1.20;;
79149;SDS011;68563;45.644;13.782;2023-04-25T08:36:54;3.03;;;1.35;;
79149;SDS011;68563;45.644;13.782;2023-04-25T08:39:20;2.50;;;1.15;;
79149;SDS011;68563;45.644;13.782;2023-04-25T08:41:45;3.15;;;1.20;;
79149;SDS011;68563;45.644;13.782;2023-04-25T08:44:11;2.63;;;1.20;;
79149;SDS011;68563;45.644;13.782;2023-04-25T08:46:40;1.33;;;0.80;;
79149;SDS011;68563;45.644;13.782;2023-04-25T08:49:06;3.15;;;1.00;;
79149;SDS011;68563;45.644;13.782;2023-04-25T08:51:32;8.93;;;3.60;;
79149;SDS011;68563;45.644;13.782;2023-04-25T08:54:02;3.63;;;1.67;;
79149;SDS011;68563;45.644;13.782;2023-04-25T08:56:33;5.22;;;1.52;;
79149;SDS011;68563;45.644;13.782;2023-04-25T08:58:59;3.72;;;1.23;;
79149;SDS011;68563;45.644;13.782;2023-04-25T09:01:26;2.17;;;1.17;;
79149;SDS011;68563;45.644;13.782;2023-04-25T09:03:52;1.73;;;0.90;;
79149;SDS011;68563;45.644;13.782;2023-04-25T09:06:18;4.97;;;1.42;;
79149;SDS011;68563;45.644;13.782;2023-04-25T09:08:44;4.28;;;1.27;;
79149;SDS011;68563;45.644;13.782;2023-04-25T09:11:09;3.25;;;1.20;;
79149;SDS011;68563;45.644;13.782;2023-04-25T09:13:35;3.53;;;0.93;;
79149;SDS011;68563;45.644;13.782;2023-04-25T09:16:00;5.25;;;1.60;;
79149;SDS011;68563;45.644;13.782;2023-04-25T09:18:30;5.25;;;1.70;;
79149;SDS011;68563;45.644;13.782;2023-04-25T09:21:09;2.20;;;1.45;;
79149;SDS011;68563;45.644;13.782;2023-04-25T09:23:54;6.28;;;3.00;;
79149;SDS011;68563;45.644;13.782;2023-04-25T09:26:20;3.03;;;1.45;;
79149;SDS011;68563;45.644;13.782;2023-04-25T09:28:46;3.78;;;1.30;;
79149;SDS011;68563;45.644;13.782;2023-04-25T09:31:20;3.00;;;1.40;;
79149;SDS011;68563;45.644;13.782;2023-04-25T09:33:49;5.40;;;2.28;;
79149;SDS011;68563;45.644;13.782;2023-04-25T09:36:14;8.85;;;5.70;;
79149;SDS011;68563;45.644;13.782;2023-04-25T09:38:41;7.88;;;3.60;;
79149;SDS011;68563;45.644;13.782;2023-04-25T09:41:08;3.75;;;2.35;;
79149;SDS011;68563;45.644;13.782;2023-04-25T09:43:35;5.40;;;1.40;;
79149;SDS011;68563;45.644;13.782;2023-04-25T09:46:01;2.17;;;1.23;;
79149;SDS011;68563;45.644;13.782;2023-04-25T09:48:27;9.02;;;1.65;;
79149;SDS011;68563;45.644;13.782;2023-04-25T09:51:03;3.47;;;1.40;;
79149;SDS011;68563;45.644;13.782;2023-04-25T09:53:29;3.00;;;1.30;;
79149;SDS011;68563;45.644;13.782;2023-04-25T09:55:57;4.45;;;1.13;;
79149;SDS011;68563;45.644;13.782;2023-04-25T09:58:25;4.70;;;1.40;;
79149;SDS011;68563;45.644;13.782;2023-04-25T10:00:54;2.30;;;1.10;;
79149;SDS011;68563;45.644;13.782;2023-04-25T10:03:24;1.40;;;1.17;;
79149;SDS011;68563;45.644;13.782;2023-04-25T10:05:50;4.03;;;0.80;;
79149;SDS011;68563;45.644;13.782;2023-04-25T10:08:17;5.05;;;1.48;;
79149;SDS011;68563;45.644;13.782;2023-04-25T10:10:44;3.53;;;1.30;;
79149;SDS011;68563;45.644;13.782;2023-04-25T10:13:12;4.60;;;1.35;;
79149;SDS011;68563;45.644;13.782;2023-04-25T10:15:39;3.40;;;1.10;;
79149;SDS011;68563;45.644;13.782;2023-04-25T10:18:06;6.45;;;1.80;;
79149;SDS011;68563;45.644;13.782;2023-04-25T10:20:32;3.47;;;1.73;;
79149;SDS011;68563;45.644;13.782;2023-04-25T10:22:58;3.83;;;1.70;;
79149;SDS011;68563;45.644;13.782;2023-04-25T10:25:32;5.13;;;1.30;;
79149;SDS011;68563;45.644;13.782;2023-04-25T10:27:59;3.45;;;1.20;;
79149;SDS011;68563;45.644;13.782;2023-04-25T10:30:25;1.95;;;0.80;;
79149;SDS011;68563;45.644;13.782;2023-04-25T10:32:51;4.28;;;1.80;;
79149;SDS011;68563;45.644;13.782;2023-04-25T10:35:27;2.35;;;1.40;;
79149;SDS011;68563;45.644;13.782;2023-04-25T10:38:00;2.78;;;1.10;;
79149;SDS011;68563;45.644;13.782;2023-04-25T10:40:32;3.63;;;1.20;;
79149;SDS011;68563;45.644;13.782;2023-04-25T10:45:54;3.15;;;1.27;;
79149;SDS011;68563;45.644;13.782;2023-04-25T10:48:26;3.47;;;1.17;;
79149;SDS011;68563;45.644;13.782;2023-04-25T10:51:11;3.35;;;1.08;;
79149;SDS011;68563;45.644;13.782;2023-04-25T10:53:41;4.00;;;1.17;;
79149;SDS011;68563;45.644;13.782;2023-04-25T10:56:18;3.05;;;1.10;;
79149;SDS011;68563;45.644;13.782;2023-04-25T10:58:45;3.83;;;0.90;;
79149;SDS011;68563;45.644;13.782;2023-04-25T11:01:14;2.90;;;1.10;;
79149;SDS011;68563;45.644;13.782;2023-04-25T11:03:44;1.75;;;1.15;;
79149;SDS011;68563;45.644;13.782;2023-04-25T11:06:22;1.67;;;1.13;;
79149;SDS011;68563;45.644;13.782;2023-04-25T11:08:52;5.57;;;2.65;;
79149;SDS011;68563;45.644;13.782;2023-04-25T11:11:17;3.78;;;1.88;;
79149;SDS011;68563;45.644;13.782;2023-04-25T11:13:43;2.28;;;1.40;;
79149;SDS011;68563;45.644;13.782;2023-04-25T11:16:09;2.00;;;1.30;;
79149;SDS011;68563;45.644;13.782;2023-04-25T11:18:35;3.50;;;1.27;;
79149;SDS011;68563;45.644;13.782;2023-04-25T11:21:02;2.00;;;1.15;;
79149;SDS011;68563;45.644;13.782;2023-04-25T11:23:27;2.67;;;0.85;;
79149;SDS011;68563;45.644;13.782;2023-04-25T11:25:55;3.72;;;1.77;;
79149;SDS011;68563;45.644;13.782;2023-04-25T11:28:20;2.03;;;1.38;;
79149;SDS011;68563;45.644;13.782;2023-04-25T11:30:50;2.88;;;1.30;;
79149;SDS011;68563;45.644;13.782;2023-04-25T11:33:15;2.97;;;1.40;;
79149;SDS011;68563;45.644;13.782;2023-04-25T11:35:41;2.90;;;1.40;;
79149;SDS011;68563;45.644;13.782;2023-04-25T11:38:07;2.60;;;1.50;;
79149;SDS011;68563;45.644;13.782;2023-04-25T11:40:32;2.42;;;1.30;;
79149;SDS011;68563;45.644;13.782;2023-04-25T11:42:59;3.83;;;1.48;;
79149;SDS011;68563;45.644;13.782;2023-04-25T11:45:26;10.85;;;1.92;;
79149;SDS011;68563;45.644;13.782;2023-04-25T11:47:51;2.97;;;1.80;;
79149;SDS011;68563;45.644;13.782;2023-04-25T11:50:18;5.35;;;1.75;;
79149;SDS011;68563;45.644;13.782;2023-04-25T11:52:44;2.80;;;1.25;;
79149;SDS011;68563;45.644;13.782;2023-04-25T11:55:13;2.80;;;1.27;;
79149;SDS011;68563;45.644;13.782;2023-04-25T11:57:40;3.22;;;1.30;;
79149;SDS011;68563;45.644;13.782;2023-04-25T12:00:10;2.65;;;1.23;;
79149;SDS011;68563;45.644;13.782;2023-04-25T12:02:44;2.80;;;1.27;;
79149;SDS011;68563;45.644;13.782;2023-04-25T12:05:16;3.55;;;1.40;;
79149;SDS011;68563;45.644;13.782;2023-04-25T12:07:42;1.90;;;1.13;;
79149;SDS011;68563;45.644;13.782;2023-04-25T12:10:08;2.75;;;1.10;;
79149;SDS011;68563;45.644;13.782;2023-04-25T12:12:35;3.80;;;1.00;;
79149;SDS011;68563;45.644;13.782;2023-04-25T12:15:17;1.58;;;1.10;;
79149;SDS011;68563;45.644;13.782;2023-04-25T12:17:49;2.60;;;1.40;;
79149;SDS011;68563;45.644;13.782;2023-04-25T12:20:17;3.90;;;1.20;;
79149;SDS011;68563;45.644;13.782;2023-04-25T12:22:45;2.08;;;1.45;;
79149;SDS011;68563;45.644;13.782;2023-04-25T12:25:12;4.70;;;1.33;;
79149;SDS011;68563;45.644;13.782;2023-04-25T12:27:39;2.65;;;1.20;;
79149;SDS011;68563;45.644;13.782;2023-04-25T12:30:07;3.08;;;1.55;;
79149;SDS011;68563;45.644;13.782;2023-04-25T12:32:33;4.65;;;1.27;;
79149;SDS011;68563;45.644;13.782;2023-04-25T12:34:58;7.68;;;2.63;;
79149;SDS011;68563;45.644;13.782;2023-04-25T12:37:24;5.20;;;1.70;;
79149;SDS011;68563;45.644;13.782;2023-04-25T12:39:49;4.28;;;1.20;;
79149;SDS011;68563;45.644;13.782;2023-04-25T12:42:15;6.25;;;1.85;;
79149;SDS011;68563;45.644;13.782;2023-04-25T12:44:41;2.33;;;1.50;;
79149;SDS011;68563;45.644;13.782;2023-04-25T12:47:06;5.78;;;1.50;;
79149;SDS011;68563;45.644;13.782;2023-04-25T12:49:32;4.68;;;1.60;;
79149;SDS011;68563;45.644;13.782;2023-04-25T12:51:58;4.50;;;1.60;;
79149;SDS011;68563;45.644;13.782;2023-04-25T12:54:23;5.20;;;1.30;;
79149;SDS011;68563;45.644;13.782;2023-04-25T12:56:50;4.40;;;1.40;;
79149;SDS011;68563;45.644;13.782;2023-04-25T12:59:16;5.30;;;1.95;;
79149;SDS011;68563;45.644;13.782;2023-04-25T13:01:41;4.05;;;1.77;;
79149;SDS011;68563;45.644;13.782;2023-04-25T13:04:07;2.22;;;1.48;;
79149;SDS011;68563;45.644;13.782;2023-04-25T13:06:33;2.58;;;1.52;;
79149;SDS011;68563;45.644;13.782;2023-04-25T13:08:58;3.28;;;1.55;;
79149;SDS011;68563;45.644;13.782;2023-04-25T13:11:24;3.17;;;1.38;;
79149;SDS011;68563;45.644;13.782;2023-04-25T13:13:49;3.40;;;1.75;;
79149;SDS011;68563;45.644;13.782;2023-04-25T13:16:14;7.30;;;1.80;;
79149;SDS011;68563;45.644;13.782;2023-04-25T13:18:40;3.65;;;1.90;;
79149;SDS011;68563;45.644;13.782;2023-04-25T13:21:06;2.80;;;1.40;;
79149;SDS011;68563;45.644;13.782;2023-04-25T13:23:31;3.88;;;1.67;;
79149;SDS011;68563;45.644;13.782;2023-04-25T13:25:57;3.03;;;1.70;;
79149;SDS011;68563;45.644;13.782;2023-04-25T13:28:26;3.60;;;1.55;;
79149;SDS011;68563;45.644;13.782;2023-04-25T13:30:51;3.30;;;1.65;;
79149;SDS011;68563;45.644;13.782;2023-04-25T13:33:17;3.22;;;1.60;;
79149;SDS011;68563;45.644;13.782;2023-04-25T13:35:44;3.72;;;1.75;;
79149;SDS011;68563;45.644;13.782;2023-04-25T13:38:18;2.65;;;1.50;;
79149;SDS011;68563;45.644;13.782;2023-04-25T13:40:45;3.03;;;1.80;;
79149;SDS011;68563;45.644;13.782;2023-04-25T13:43:11;2.90;;;1.73;;
79149;SDS011;68563;45.644;13.782;2023-04-25T13:45:36;3.88;;;1.92;;
79149;SDS011;68563;45.644;13.782;2023-04-25T13:48:01;4.30;;;1.67;;
79149;SDS011;68563;45.644;13.782;2023-04-25T13:50:27;2.22;;;1.70;;
79149;SDS011;68563;45.644;13.782;2023-04-25T13:52:52;2.60;;;1.80;;
79149;SDS011;68563;45.644;13.782;2023-04-25T13:55:18;3.28;;;1.75;;
79149;SDS011;68563;45.644;13.782;2023-04-25T13:57:43;3.65;;;1.90;;
79149;SDS011;68563;45.644;13.782;2023-04-25T14:00:09;5.20;;;1.90;;
79149;SDS011;68563;45.644;13.782;2023-04-25T14:02:35;2.20;;;1.70;;
79149;SDS011;68563;45.644;13.782;2023-04-25T14:05:01;3.90;;;1.42;;
79149;SDS011;68563;45.644;13.782;2023-04-25T14:07:28;3.13;;;1.73;;
79149;SDS011;68563;45.644;13.782;2023-04-25T14:09:53;2.60;;;1.73;;
79149;SDS011;68563;45.644;13.782;2023-04-25T14:12:18;1.88;;;1.40;;
79149;SDS011;68563;45.644;13.782;2023-04-25T14:14:44;2.30;;;1.30;;
79149;SDS011;68563;45.644;13.782;2023-04-25T14:17:09;2.17;;;1.20;;
79149;SDS011;68563;45.644;13.782;2023-04-25T14:19:35;2.45;;;1.33;;
79149;SDS011;68563;45.644;13.782;2023-04-25T14:22:02;2.20;;;1.27;;
79149;SDS011;68563;45.644;13.782;2023-04-25T14:24:28;2.40;;;1.25;;
79149;SDS011;68563;45.644;13.782;2023-04-25T14:26:53;2.17;;;0.80;;
79149;SDS011;68563;45.644;13.782;2023-04-25T14:29:18;3.22;;;1.27;;
79149;SDS011;68563;45.644;13.782;2023-04-25T14:31:44;1.73;;;1.23;;